This is the latest recevied weather packets stored in our database for station/object N4AR. If no packets are shown the sender has not sent any weather packets the latest 10 day(s).
| Time | Temp. | Humidity | Pressure | Rain* | Wind** | Luminosity | Snow |
|---|---|---|---|---|---|---|---|
| 1777486838 | 22.22° C | 64% | 1011.6 hPa | 0 mm | - | 373 W/m² | - |
| 1777486535 | 21.67° C | 64% | 1011.7 hPa | 0 mm | - | 424 W/m² | - |
| 1777486233 | 21.11° C | 69% | 1011.8 hPa | 0 mm | - | 459 W/m² | - |
| 1777485931 | 21.11° C | 69% | 1011.8 hPa | 0 mm | - | 466 W/m² | - |
| 1777485626 | 20.56° C | 70% | 1011.7 hPa | 0 mm | - | 248 W/m² | - |
| 1777485321 | 20.56° C | 70% | 1011.8 hPa | 0 mm | - | 217 W/m² | - |
| 1777485018 | 20.56° C | 69% | 1012.1 hPa | 0 mm | - | 206 W/m² | - |
| 1777484716 | 20.56° C | 70% | 1012 hPa | 0 mm | - | 212 W/m² | - |
| 1777484412 | 20.56° C | 69% | 1012.1 hPa | 0 mm | - | 195 W/m² | - |
| 1777484109 | 20.56° C | 69% | 1012 hPa | 0 mm | - | 192 W/m² | - |
| 1777483804 | 20.56° C | 69% | 1012.1 hPa | 0 mm | - | 219 W/m² | - |
| 1777483501 | 20° C | 69% | 1012.3 hPa | 0 mm | - | 252 W/m² | - |
| 1777483196 | 20° C | 70% | 1012.5 hPa | 0 mm | - | 267 W/m² | - |
| 1777482893 | 19.44° C | 71% | 1012.6 hPa | 0 mm | - | 215 W/m² | - |
| 1777482588 | 20° C | 71% | 1012.8 hPa | 0 mm | - | 158 W/m² | - |
| 1777482286 | 19.44° C | 71% | 1013 hPa | 0 mm | - | 145 W/m² | - |
| 1777481983 | 19.44° C | 71% | 1012.8 hPa | 0 mm | - | 132 W/m² | - |
| 1777481681 | 19.44° C | 71% | 1013.1 hPa | 0 mm | - | 117 W/m² | - |
| 1777481378 | 20° C | 69% | 1013.4 hPa | 0 mm | - | 125 W/m² | - |
| 1777481074 | 20° C | 69% | 1013.2 hPa | 0 mm | - | 146 W/m² | - |
| 1777480771 | 20.56° C | 67% | 1013.2 hPa | 0 mm | - | 190 W/m² | - |
| 1777480467 | 21.11° C | 64% | 1013.2 hPa | 0 mm | - | 279 W/m² | - |
| 1777480163 | 21.67° C | 64% | 1013.3 hPa | 0 mm | - | 411 W/m² | - |
| 1777479860 | 21.11° C | 65% | 1013.5 hPa | 0 mm | - | 755 W/m² | - |
| 1777479557 | 21.11° C | 66% | 1013.3 hPa | 0 mm | - | 522 W/m² | - |
* Rain latest hour (hover to see other rain measurements)
** Current wind speed in m/s (hover to see current wind gust speed)